sensor_id;sensor_type;location;lat;lon;timestamp;temperature;humidity
20372;DHT22;42924;37.564;-122.048;2022-07-23T00:01:08;34.70;99.90
20372;DHT22;42924;37.564;-122.048;2022-07-23T00:03:39;34.70;99.90
20372;DHT22;42924;37.564;-122.048;2022-07-23T00:06:10;34.80;99.90
20372;DHT22;42924;37.564;-122.048;2022-07-23T00:08:45;34.70;99.90
20372;DHT22;42924;37.564;-122.048;2022-07-23T00:11:16;34.80;99.90
20372;DHT22;42924;37.564;-122.048;2022-07-23T00:13:45;34.70;99.90
20372;DHT22;42924;37.564;-122.048;2022-07-23T00:16:17;34.60;99.90
20372;DHT22;42924;37.564;-122.048;2022-07-23T00:18:48;34.40;99.90
20372;DHT22;42924;37.564;-122.048;2022-07-23T00:21:19;34.30;99.90
20372;DHT22;42924;37.564;-122.048;2022-07-23T00:23:50;34.30;99.90
20372;DHT22;42924;37.564;-122.048;2022-07-23T00:26:20;34.30;99.90
20372;DHT22;42924;37.564;-122.048;2022-07-23T00:28:51;34.20;99.90
20372;DHT22;42924;37.564;-122.048;2022-07-23T00:31:22;34.10;99.90
20372;DHT22;42924;37.564;-122.048;2022-07-23T00:33:52;34.10;99.90
20372;DHT22;42924;37.564;-122.048;2022-07-23T00:36:26;34.10;99.90
20372;DHT22;42924;37.564;-122.048;2022-07-23T00:38:57;34.00;99.90
20372;DHT22;42924;37.564;-122.048;2022-07-23T00:41:29;33.90;99.90
20372;DHT22;42924;37.564;-122.048;2022-07-23T00:44:19;33.80;99.90
20372;DHT22;42924;37.564;-122.048;2022-07-23T00:46:53;33.80;99.90
20372;DHT22;42924;37.564;-122.048;2022-07-23T00:49:27;33.80;99.90
20372;DHT22;42924;37.564;-122.048;2022-07-23T00:51:58;33.70;99.90
20372;DHT22;42924;37.564;-122.048;2022-07-23T00:54:34;33.70;99.90
20372;DHT22;42924;37.564;-122.048;2022-07-23T00:57:08;33.70;99.90
20372;DHT22;42924;37.564;-122.048;2022-07-23T00:59:41;33.70;99.90
20372;DHT22;42924;37.564;-122.048;2022-07-23T01:02:15;33.60;99.90
20372;DHT22;42924;37.564;-122.048;2022-07-23T01:04:51;33.60;99.90
20372;DHT22;42924;37.564;-122.048;2022-07-23T01:07:23;33.60;99.90
20372;DHT22;42924;37.564;-122.048;2022-07-23T01:09:54;33.50;99.90
20372;DHT22;42924;37.564;-122.048;2022-07-23T01:12:26;33.50;99.90
20372;DHT22;42924;37.564;-122.048;2022-07-23T01:14:58;33.50;99.90
20372;DHT22;42924;37.564;-122.048;2022-07-23T01:17:29;33.40;99.90
20372;DHT22;42924;37.564;-122.048;2022-07-23T01:20:01;33.40;99.90
20372;DHT22;42924;37.564;-122.048;2022-07-23T01:22:34;33.40;99.90
20372;DHT22;42924;37.564;-122.048;2022-07-23T01:25:10;33.30;99.90
20372;DHT22;42924;37.564;-122.048;2022-07-23T01:27:49;33.20;99.90
20372;DHT22;42924;37.564;-122.048;2022-07-23T01:30:20;33.20;99.90
20372;DHT22;42924;37.564;-122.048;2022-07-23T01:32:51;33.10;99.90
20372;DHT22;42924;37.564;-122.048;2022-07-23T01:35:22;33.10;99.90
20372;DHT22;42924;37.564;-122.048;2022-07-23T01:37:56;33.00;99.90
20372;DHT22;42924;37.564;-122.048;2022-07-23T01:40:26;33.00;99.90
20372;DHT22;42924;37.564;-122.048;2022-07-23T01:42:59;32.90;99.90
20372;DHT22;42924;37.564;-122.048;2022-07-23T01:45:32;32.80;99.90
20372;DHT22;42924;37.564;-122.048;2022-07-23T01:48:01;32.80;99.90
20372;DHT22;42924;37.564;-122.048;2022-07-23T01:50:40;32.80;99.90
20372;DHT22;42924;37.564;-122.048;2022-07-23T01:53:09;32.80;99.90
20372;DHT22;42924;37.564;-122.048;2022-07-23T01:56:15;32.70;99.90
20372;DHT22;42924;37.564;-122.048;2022-07-23T01:59:15;32.70;99.90
20372;DHT22;42924;37.564;-122.048;2022-07-23T02:01:47;32.60;99.90
20372;DHT22;42924;37.564;-122.048;2022-07-23T02:04:24;32.60;99.90
20372;DHT22;42924;37.564;-122.048;2022-07-23T02:06:54;32.60;99.90
20372;DHT22;42924;37.564;-122.048;2022-07-23T02:09:29;32.50;99.90
20372;DHT22;42924;37.564;-122.048;2022-07-23T02:12:02;32.40;99.90
20372;DHT22;42924;37.564;-122.048;2022-07-23T02:14:32;32.50;99.90
20372;DHT22;42924;37.564;-122.048;2022-07-23T02:17:09;32.40;99.90
20372;DHT22;42924;37.564;-122.048;2022-07-23T02:19:40;32.30;99.90
20372;DHT22;42924;37.564;-122.048;2022-07-23T02:22:12;32.30;99.90
20372;DHT22;42924;37.564;-122.048;2022-07-23T02:24:41;32.30;99.90
20372;DHT22;42924;37.564;-122.048;2022-07-23T02:27:11;32.30;99.90
20372;DHT22;42924;37.564;-122.048;2022-07-23T02:29:41;32.20;99.90
20372;DHT22;42924;37.564;-122.048;2022-07-23T02:32:16;32.10;99.90
20372;DHT22;42924;37.564;-122.048;2022-07-23T02:34:53;32.00;99.90
20372;DHT22;42924;37.564;-122.048;2022-07-23T02:37:27;31.90;99.90
20372;DHT22;42924;37.564;-122.048;2022-07-23T02:39:56;31.80;99.90
20372;DHT22;42924;37.564;-122.048;2022-07-23T02:42:26;31.90;99.90
20372;DHT22;42924;37.564;-122.048;2022-07-23T02:45:07;31.90;99.90
20372;DHT22;42924;37.564;-122.048;2022-07-23T02:47:41;31.90;99.90
20372;DHT22;42924;37.564;-122.048;2022-07-23T02:50:12;31.90;99.90
20372;DHT22;42924;37.564;-122.048;2022-07-23T02:52:44;31.80;99.90
20372;DHT22;42924;37.564;-122.048;2022-07-23T02:55:16;31.80;99.90
20372;DHT22;42924;37.564;-122.048;2022-07-23T02:57:46;31.80;99.90
20372;DHT22;42924;37.564;-122.048;2022-07-23T03:00:24;31.80;99.90
20372;DHT22;42924;37.564;-122.048;2022-07-23T03:02:54;31.80;99.90
20372;DHT22;42924;37.564;-122.048;2022-07-23T03:05:53;31.70;99.90
20372;DHT22;42924;37.564;-122.048;2022-07-23T03:08:56;31.60;99.90
20372;DHT22;42924;37.564;-122.048;2022-07-23T03:11:28;31.70;99.90
20372;DHT22;42924;37.564;-122.048;2022-07-23T03:13:58;31.60;99.90
20372;DHT22;42924;37.564;-122.048;2022-07-23T03:16:31;31.60;99.90
20372;DHT22;42924;37.564;-122.048;2022-07-23T03:19:04;31.60;99.90
20372;DHT22;42924;37.564;-122.048;2022-07-23T03:21:36;31.60;99.90
20372;DHT22;42924;37.564;-122.048;2022-07-23T03:24:11;31.50;99.90
20372;DHT22;42924;37.564;-122.048;2022-07-23T03:26:44;31.50;99.90
20372;DHT22;42924;37.564;-122.048;2022-07-23T03:29:13;31.50;99.90
20372;DHT22;42924;37.564;-122.048;2022-07-23T03:31:48;31.40;99.90
20372;DHT22;42924;37.564;-122.048;2022-07-23T03:34:40;31.30;99.90
20372;DHT22;42924;37.564;-122.048;2022-07-23T03:37:10;31.20;99.90
20372;DHT22;42924;37.564;-122.048;2022-07-23T03:39:50;31.10;99.90
20372;DHT22;42924;37.564;-122.048;2022-07-23T03:42:20;31.20;99.90
20372;DHT22;42924;37.564;-122.048;2022-07-23T03:44:57;31.10;99.90
20372;DHT22;42924;37.564;-122.048;2022-07-23T03:47:28;31.00;99.90
20372;DHT22;42924;37.564;-122.048;2022-07-23T03:49:59;31.10;99.90
20372;DHT22;42924;37.564;-122.048;2022-07-23T03:52:32;31.10;99.90
20372;DHT22;42924;37.564;-122.048;2022-07-23T03:55:04;31.00;99.90
20372;DHT22;42924;37.564;-122.048;2022-07-23T03:57:36;30.90;99.90
20372;DHT22;42924;37.564;-122.048;2022-07-23T04:00:13;30.90;99.90
20372;DHT22;42924;37.564;-122.048;2022-07-23T04:02:47;30.80;99.90
20372;DHT22;42924;37.564;-122.048;2022-07-23T04:05:21;30.70;99.90
20372;DHT22;42924;37.564;-122.048;2022-07-23T04:08:00;30.70;99.90
20372;DHT22;42924;37.564;-122.048;2022-07-23T04:10:37;30.70;99.90
20372;DHT22;42924;37.564;-122.048;2022-07-23T04:13:58;30.60;99.90
20372;DHT22;42924;37.564;-122.048;2022-07-23T04:21:28;30.50;99.90
20372;DHT22;42924;37.564;-122.048;2022-07-23T04:34:04;30.40;99.90
20372;DHT22;42924;37.564;-122.048;2022-07-23T04:38:07;30.20;99.90
20372;DHT22;42924;37.564;-122.048;2022-07-23T04:45:50;30.10;99.90
20372;DHT22;42924;37.564;-122.048;2022-07-23T04:48:20;30.00;99.90
20372;DHT22;42924;37.564;-122.048;2022-07-23T04:50:58;29.90;99.90
20372;DHT22;42924;37.564;-122.048;2022-07-23T04:53:31;29.90;99.90
20372;DHT22;42924;37.564;-122.048;2022-07-23T04:56:03;29.90;99.90
20372;DHT22;42924;37.564;-122.048;2022-07-23T04:58:35;29.90;99.90
20372;DHT22;42924;37.564;-122.048;2022-07-23T05:01:06;29.60;99.90
20372;DHT22;42924;37.564;-122.048;2022-07-23T05:03:39;29.60;99.90
20372;DHT22;42924;37.564;-122.048;2022-07-23T05:06:11;29.60;99.90
20372;DHT22;42924;37.564;-122.048;2022-07-23T05:08:54;29.50;99.90
20372;DHT22;42924;37.564;-122.048;2022-07-23T05:11:32;29.40;99.90
20372;DHT22;42924;37.564;-122.048;2022-07-23T05:14:05;29.30;99.90
20372;DHT22;42924;37.564;-122.048;2022-07-23T05:16:55;29.30;99.90
20372;DHT22;42924;37.564;-122.048;2022-07-23T05:19:35;29.30;99.90
20372;DHT22;42924;37.564;-122.048;2022-07-23T05:22:07;29.30;99.90
20372;DHT22;42924;37.564;-122.048;2022-07-23T05:24:37;29.20;99.90
20372;DHT22;42924;37.564;-122.048;2022-07-23T05:27:08;29.10;99.90
20372;DHT22;42924;37.564;-122.048;2022-07-23T05:29:43;29.10;99.90
20372;DHT22;42924;37.564;-122.048;2022-07-23T05:32:17;29.10;99.90
20372;DHT22;42924;37.564;-122.048;2022-07-23T05:35:00;29.10;99.90
20372;DHT22;42924;37.564;-122.048;2022-07-23T05:37:29;29.00;99.90
20372;DHT22;42924;37.564;-122.048;2022-07-23T05:40:09;28.90;99.90
20372;DHT22;42924;37.564;-122.048;2022-07-23T05:42:41;28.80;99.90
20372;DHT22;42924;37.564;-122.048;2022-07-23T05:45:13;28.80;99.90
20372;DHT22;42924;37.564;-122.048;2022-07-23T05:47:47;28.80;99.90
20372;DHT22;42924;37.564;-122.048;2022-07-23T05:50:28;28.70;99.90
20372;DHT22;42924;37.564;-122.048;2022-07-23T05:53:07;28.70;99.90
20372;DHT22;42924;37.564;-122.048;2022-07-23T05:55:56;28.60;99.90
20372;DHT22;42924;37.564;-122.048;2022-07-23T05:58:31;28.50;99.90
20372;DHT22;42924;37.564;-122.048;2022-07-23T06:01:01;28.50;99.90
20372;DHT22;42924;37.564;-122.048;2022-07-23T06:03:42;28.40;99.90
20372;DHT22;42924;37.564;-122.048;2022-07-23T06:06:16;28.40;99.90
20372;DHT22;42924;37.564;-122.048;2022-07-23T06:08:47;28.30;99.90
20372;DHT22;42924;37.564;-122.048;2022-07-23T06:11:17;28.20;99.90
20372;DHT22;42924;37.564;-122.048;2022-07-23T06:13:49;28.20;99.90
20372;DHT22;42924;37.564;-122.048;2022-07-23T06:16:25;28.10;99.90
20372;DHT22;42924;37.564;-122.048;2022-07-23T06:18:55;28.20;99.90
20372;DHT22;42924;37.564;-122.048;2022-07-23T06:21:36;28.20;99.90
20372;DHT22;42924;37.564;-122.048;2022-07-23T06:24:17;28.20;99.90
20372;DHT22;42924;37.564;-122.048;2022-07-23T06:26:50;28.20;99.90
20372;DHT22;42924;37.564;-122.048;2022-07-23T06:29:21;28.10;99.90
20372;DHT22;42924;37.564;-122.048;2022-07-23T06:31:57;27.90;99.90
20372;DHT22;42924;37.564;-122.048;2022-07-23T06:34:29;27.90;99.90
20372;DHT22;42924;37.564;-122.048;2022-07-23T06:37:00;27.90;99.90
20372;DHT22;42924;37.564;-122.048;2022-07-23T06:39:31;27.90;99.90
20372;DHT22;42924;37.564;-122.048;2022-07-23T06:42:04;27.90;99.90
20372;DHT22;42924;37.564;-122.048;2022-07-23T06:44:51;27.90;99.90
20372;DHT22;42924;37.564;-122.048;2022-07-23T06:47:35;27.80;99.90
20372;DHT22;42924;37.564;-122.048;2022-07-23T06:50:11;27.70;99.90
20372;DHT22;42924;37.564;-122.048;2022-07-23T06:52:42;27.80;99.90
20372;DHT22;42924;37.564;-122.048;2022-07-23T06:55:15;27.70;99.90
20372;DHT22;42924;37.564;-122.048;2022-07-23T06:57:45;27.50;99.90
20372;DHT22;42924;37.564;-122.048;2022-07-23T07:00:16;27.60;99.90
20372;DHT22;42924;37.564;-122.048;2022-07-23T07:02:50;27.50;99.90
20372;DHT22;42924;37.564;-122.048;2022-07-23T07:05:25;27.60;99.90
20372;DHT22;42924;37.564;-122.048;2022-07-23T07:07:57;27.60;99.90
20372;DHT22;42924;37.564;-122.048;2022-07-23T07:10:32;27.60;99.90
20372;DHT22;42924;37.564;-122.048;2022-07-23T07:13:01;27.50;99.90
20372;DHT22;42924;37.564;-122.048;2022-07-23T07:15:37;27.30;99.90
20372;DHT22;42924;37.564;-122.048;2022-07-23T07:18:08;27.30;99.90
20372;DHT22;42924;37.564;-122.048;2022-07-23T07:20:46;27.30;99.90
20372;DHT22;42924;37.564;-122.048;2022-07-23T07:23:16;27.40;99.90
20372;DHT22;42924;37.564;-122.048;2022-07-23T07:25:47;27.40;99.90
20372;DHT22;42924;37.564;-122.048;2022-07-23T07:28:18;27.40;99.90
20372;DHT22;42924;37.564;-122.048;2022-07-23T07:30:53;27.30;99.90
20372;DHT22;42924;37.564;-122.048;2022-07-23T07:33:35;27.30;99.90
20372;DHT22;42924;37.564;-122.048;2022-07-23T07:36:07;27.30;99.90
20372;DHT22;42924;37.564;-122.048;2022-07-23T07:38:40;27.30;99.90
20372;DHT22;42924;37.564;-122.048;2022-07-23T07:41:13;27.30;99.90
20372;DHT22;42924;37.564;-122.048;2022-07-23T07:43:45;27.20;99.90
20372;DHT22;42924;37.564;-122.048;2022-07-23T07:46:18;27.30;99.90
20372;DHT22;42924;37.564;-122.048;2022-07-23T07:48:51;27.30;99.90
20372;DHT22;42924;37.564;-122.048;2022-07-23T07:51:26;27.40;99.90
20372;DHT22;42924;37.564;-122.048;2022-07-23T07:54:04;27.30;99.90
20372;DHT22;42924;37.564;-122.048;2022-07-23T07:56:34;27.30;99.90
20372;DHT22;42924;37.564;-122.048;2022-07-23T07:59:06;27.20;99.90
20372;DHT22;42924;37.564;-122.048;2022-07-23T08:01:38;27.20;99.90
20372;DHT22;42924;37.564;-122.048;2022-07-23T08:04:12;27.20;99.90
20372;DHT22;42924;37.564;-122.048;2022-07-23T08:06:43;27.20;99.90
20372;DHT22;42924;37.564;-122.048;2022-07-23T08:09:15;27.10;99.90
20372;DHT22;42924;37.564;-122.048;2022-07-23T08:11:48;27.20;99.90
20372;DHT22;42924;37.564;-122.048;2022-07-23T08:14:23;27.10;99.90
20372;DHT22;42924;37.564;-122.048;2022-07-23T08:16:53;27.20;99.90
20372;DHT22;42924;37.564;-122.048;2022-07-23T08:19:41;27.20;99.90
20372;DHT22;42924;37.564;-122.048;2022-07-23T08:22:11;27.10;99.90
20372;DHT22;42924;37.564;-122.048;2022-07-23T08:24:42;27.10;99.90
20372;DHT22;42924;37.564;-122.048;2022-07-23T08:27:14;27.10;99.90
20372;DHT22;42924;37.564;-122.048;2022-07-23T08:29:46;27.10;99.90
20372;DHT22;42924;37.564;-122.048;2022-07-23T08:32:17;27.10;99.90
20372;DHT22;42924;37.564;-122.048;2022-07-23T08:35:08;27.00;99.90
20372;DHT22;42924;37.564;-122.048;2022-07-23T08:37:38;27.00;99.90
20372;DHT22;42924;37.564;-122.048;2022-07-23T08:40:10;27.00;99.90
20372;DHT22;42924;37.564;-122.048;2022-07-23T08:42:41;27.10;99.90
20372;DHT22;42924;37.564;-122.048;2022-07-23T08:45:14;27.00;99.90
20372;DHT22;42924;37.564;-122.048;2022-07-23T08:47:51;27.00;99.90
20372;DHT22;42924;37.564;-122.048;2022-07-23T08:50:25;27.00;99.90
20372;DHT22;42924;37.564;-122.048;2022-07-23T08:52:56;27.00;99.90
20372;DHT22;42924;37.564;-122.048;2022-07-23T08:55:31;27.00;99.90
20372;DHT22;42924;37.564;-122.048;2022-07-23T08:58:01;27.00;99.90
20372;DHT22;42924;37.564;-122.048;2022-07-23T09:00:32;27.00;99.90
20372;DHT22;42924;37.564;-122.048;2022-07-23T09:03:02;26.90;99.90
20372;DHT22;42924;37.564;-122.048;2022-07-23T09:05:34;27.00;99.90
20372;DHT22;42924;37.564;-122.048;2022-07-23T09:08:11;27.00;99.90
20372;DHT22;42924;37.564;-122.048;2022-07-23T09:10:47;26.80;99.90
20372;DHT22;42924;37.564;-122.048;2022-07-23T09:16:18;26.80;99.90
20372;DHT22;42924;37.564;-122.048;2022-07-23T09:21:35;26.90;99.90
20372;DHT22;42924;37.564;-122.048;2022-07-23T09:26:43;26.80;99.90
20372;DHT22;42924;37.564;-122.048;2022-07-23T09:29:22;26.80;99.90
20372;DHT22;42924;37.564;-122.048;2022-07-23T09:32:03;26.80;99.90
20372;DHT22;42924;37.564;-122.048;2022-07-23T09:34:38;26.80;99.90
20372;DHT22;42924;37.564;-122.048;2022-07-23T09:37:14;26.80;99.90
20372;DHT22;42924;37.564;-122.048;2022-07-23T09:39:48;26.70;99.90
20372;DHT22;42924;37.564;-122.048;2022-07-23T09:42:25;26.70;99.90
20372;DHT22;42924;37.564;-122.048;2022-07-23T09:44:58;26.70;99.90
20372;DHT22;42924;37.564;-122.048;2022-07-23T09:47:31;26.60;99.90
20372;DHT22;42924;37.564;-122.048;2022-07-23T09:52:35;26.60;99.90
20372;DHT22;42924;37.564;-122.048;2022-07-23T09:55:12;26.60;99.90
20372;DHT22;42924;37.564;-122.048;2022-07-23T09:57:47;26.70;99.90
20372;DHT22;42924;37.564;-122.048;2022-07-23T10:00:23;26.60;99.90
20372;DHT22;42924;37.564;-122.048;2022-07-23T10:02:59;26.60;99.90
20372;DHT22;42924;37.564;-122.048;2022-07-23T10:05:30;26.60;99.90
20372;DHT22;42924;37.564;-122.048;2022-07-23T10:08:19;26.60;99.90
20372;DHT22;42924;37.564;-122.048;2022-07-23T10:11:11;26.60;99.90
20372;DHT22;42924;37.564;-122.048;2022-07-23T10:13:49;26.50;99.90
20372;DHT22;42924;37.564;-122.048;2022-07-23T10:16:51;26.50;99.90
20372;DHT22;42924;37.564;-122.048;2022-07-23T10:19:22;26.50;99.90
20372;DHT22;42924;37.564;-122.048;2022-07-23T10:22:02;26.50;99.90
20372;DHT22;42924;37.564;-122.048;2022-07-23T10:25:08;26.40;99.90
20372;DHT22;42924;37.564;-122.048;2022-07-23T10:27:54;26.40;99.90
20372;DHT22;42924;37.564;-122.048;2022-07-23T10:30:36;26.40;99.90
20372;DHT22;42924;37.564;-122.048;2022-07-23T10:33:24;26.40;99.90
20372;DHT22;42924;37.564;-122.048;2022-07-23T10:36:07;26.30;99.90
20372;DHT22;42924;37.564;-122.048;2022-07-23T10:38:53;26.30;99.90
20372;DHT22;42924;37.564;-122.048;2022-07-23T10:41:34;26.30;99.90
20372;DHT22;42924;37.564;-122.048;2022-07-23T10:44:07;26.30;99.90
20372;DHT22;42924;37.564;-122.048;2022-07-23T10:49:37;26.20;99.90
20372;DHT22;42924;37.564;-122.048;2022-07-23T10:52:27;26.30;99.90
20372;DHT22;42924;37.564;-122.048;2022-07-23T10:57:53;26.20;99.90
20372;DHT22;42924;37.564;-122.048;2022-07-23T11:00:28;26.20;99.90
20372;DHT22;42924;37.564;-122.048;2022-07-23T11:03:05;26.30;99.90
20372;DHT22;42924;37.564;-122.048;2022-07-23T11:05:47;26.20;99.90
20372;DHT22;42924;37.564;-122.048;2022-07-23T11:08:20;26.10;99.90
20372;DHT22;42924;37.564;-122.048;2022-07-23T11:24:06;26.00;99.90
20372;DHT22;42924;37.564;-122.048;2022-07-23T11:32:31;26.00;99.90
20372;DHT22;42924;37.564;-122.048;2022-07-23T11:35:21;26.00;99.90
20372;DHT22;42924;37.564;-122.048;2022-07-23T11:38:01;25.90;99.90
20372;DHT22;42924;37.564;-122.048;2022-07-23T11:40:33;26.00;99.90
20372;DHT22;42924;37.564;-122.048;2022-07-23T11:43:08;25.90;99.90
20372;DHT22;42924;37.564;-122.048;2022-07-23T11:45:43;25.90;99.90
20372;DHT22;42924;37.564;-122.048;2022-07-23T11:48:29;25.90;99.90
20372;DHT22;42924;37.564;-122.048;2022-07-23T11:51:07;25.90;99.90
20372;DHT22;42924;37.564;-122.048;2022-07-23T11:53:37;26.00;99.90
20372;DHT22;42924;37.564;-122.048;2022-07-23T11:56:10;26.00;99.90
20372;DHT22;42924;37.564;-122.048;2022-07-23T11:58:54;26.00;99.90
20372;DHT22;42924;37.564;-122.048;2022-07-23T12:01:27;26.00;99.90
20372;DHT22;42924;37.564;-122.048;2022-07-23T12:03:58;26.00;99.90
20372;DHT22;42924;37.564;-122.048;2022-07-23T12:06:37;26.00;99.90
20372;DHT22;42924;37.564;-122.048;2022-07-23T12:09:07;25.90;99.90
20372;DHT22;42924;37.564;-122.048;2022-07-23T12:12:02;25.90;99.90
20372;DHT22;42924;37.564;-122.048;2022-07-23T12:14:33;26.00;99.90
20372;DHT22;42924;37.564;-122.048;2022-07-23T12:17:10;26.00;99.90
20372;DHT22;42924;37.564;-122.048;2022-07-23T12:19:43;26.00;99.90
20372;DHT22;42924;37.564;-122.048;2022-07-23T12:22:17;26.00;99.90
20372;DHT22;42924;37.564;-122.048;2022-07-23T12:25:09;26.00;99.90
20372;DHT22;42924;37.564;-122.048;2022-07-23T12:27:40;26.10;99.90
20372;DHT22;42924;37.564;-122.048;2022-07-23T12:30:21;26.10;99.90
20372;DHT22;42924;37.564;-122.048;2022-07-23T12:32:58;26.10;99.90
20372;DHT22;42924;37.564;-122.048;2022-07-23T12:35:38;26.10;99.90
20372;DHT22;42924;37.564;-122.048;2022-07-23T12:38:14;26.20;99.90
20372;DHT22;42924;37.564;-122.048;2022-07-23T12:40:59;26.20;99.90
20372;DHT22;42924;37.564;-122.048;2022-07-23T12:43:41;26.30;99.90
20372;DHT22;42924;37.564;-122.048;2022-07-23T12:46:14;26.30;99.90
20372;DHT22;42924;37.564;-122.048;2022-07-23T12:48:51;26.40;99.90
20372;DHT22;42924;37.564;-122.048;2022-07-23T12:51:25;26.40;99.90
20372;DHT22;42924;37.564;-122.048;2022-07-23T12:53:59;26.40;99.90
20372;DHT22;42924;37.564;-122.048;2022-07-23T12:56:37;26.40;99.90
20372;DHT22;42924;37.564;-122.048;2022-07-23T12:59:16;26.50;99.90
20372;DHT22;42924;37.564;-122.048;2022-07-23T13:01:55;26.30;99.90
20372;DHT22;42924;37.564;-122.048;2022-07-23T13:04:28;26.40;99.90
20372;DHT22;42924;37.564;-122.048;2022-07-23T13:07:00;26.30;99.90
20372;DHT22;42924;37.564;-122.048;2022-07-23T13:09:36;26.40;99.90
20372;DHT22;42924;37.564;-122.048;2022-07-23T13:12:10;26.40;99.90
20372;DHT22;42924;37.564;-122.048;2022-07-23T13:14:40;26.60;99.90
20372;DHT22;42924;37.564;-122.048;2022-07-23T13:17:12;26.70;99.90
20372;DHT22;42924;37.564;-122.048;2022-07-23T13:19:44;26.80;99.90
20372;DHT22;42924;37.564;-122.048;2022-07-23T13:22:15;26.90;99.90
20372;DHT22;42924;37.564;-122.048;2022-07-23T13:24:46;27.00;99.90
20372;DHT22;42924;37.564;-122.048;2022-07-23T13:27:17;27.10;99.90
20372;DHT22;42924;37.564;-122.048;2022-07-23T13:29:52;27.10;99.90
20372;DHT22;42924;37.564;-122.048;2022-07-23T13:32:24;27.10;99.90
20372;DHT22;42924;37.564;-122.048;2022-07-23T13:34:58;27.00;99.90
20372;DHT22;42924;37.564;-122.048;2022-07-23T13:37:29;27.10;99.90
20372;DHT22;42924;37.564;-122.048;2022-07-23T13:39:59;27.00;99.90
20372;DHT22;42924;37.564;-122.048;2022-07-23T13:42:45;27.10;99.90
20372;DHT22;42924;37.564;-122.048;2022-07-23T13:45:18;27.10;99.90
20372;DHT22;42924;37.564;-122.048;2022-07-23T13:47:49;27.20;99.90
20372;DHT22;42924;37.564;-122.048;2022-07-23T13:50:19;27.30;99.90
20372;DHT22;42924;37.564;-122.048;2022-07-23T13:52:50;27.30;99.90
20372;DHT22;42924;37.564;-122.048;2022-07-23T13:55:21;27.20;99.90
20372;DHT22;42924;37.564;-122.048;2022-07-23T13:57:54;27.30;99.90
20372;DHT22;42924;37.564;-122.048;2022-07-23T14:00:27;27.50;99.90
20372;DHT22;42924;37.564;-122.048;2022-07-23T14:03:22;27.50;99.90
20372;DHT22;42924;37.564;-122.048;2022-07-23T14:05:55;27.60;99.90
20372;DHT22;42924;37.564;-122.048;2022-07-23T14:08:27;27.70;99.90
20372;DHT22;42924;37.564;-122.048;2022-07-23T14:11:01;27.70;99.90
20372;DHT22;42924;37.564;-122.048;2022-07-23T14:13:34;27.70;99.90
20372;DHT22;42924;37.564;-122.048;2022-07-23T14:16:06;27.90;99.90
20372;DHT22;42924;37.564;-122.048;2022-07-23T14:18:39;27.90;99.90
20372;DHT22;42924;37.564;-122.048;2022-07-23T14:21:10;27.80;99.90
20372;DHT22;42924;37.564;-122.048;2022-07-23T14:23:41;27.70;99.90
20372;DHT22;42924;37.564;-122.048;2022-07-23T14:26:12;27.50;99.90
20372;DHT22;42924;37.564;-122.048;2022-07-23T14:28:45;27.40;99.90
20372;DHT22;42924;37.564;-122.048;2022-07-23T14:31:22;27.50;99.90
20372;DHT22;42924;37.564;-122.048;2022-07-23T14:33:53;27.40;99.90
20372;DHT22;42924;37.564;-122.048;2022-07-23T14:36:25;27.50;99.90
20372;DHT22;42924;37.564;-122.048;2022-07-23T14:38:59;27.40;99.90
20372;DHT22;42924;37.564;-122.048;2022-07-23T14:41:32;27.40;99.90
20372;DHT22;42924;37.564;-122.048;2022-07-23T14:44:05;27.40;99.90
20372;DHT22;42924;37.564;-122.048;2022-07-23T14:46:37;27.40;99.90
20372;DHT22;42924;37.564;-122.048;2022-07-23T14:49:10;27.70;99.90
20372;DHT22;42924;37.564;-122.048;2022-07-23T14:51:40;27.70;99.90
20372;DHT22;42924;37.564;-122.048;2022-07-23T14:54:12;27.90;99.90
20372;DHT22;42924;37.564;-122.048;2022-07-23T14:56:46;28.00;99.90
20372;DHT22;42924;37.564;-122.048;2022-07-23T14:59:18;28.10;99.90
20372;DHT22;42924;37.564;-122.048;2022-07-23T15:01:49;28.10;99.90
20372;DHT22;42924;37.564;-122.048;2022-07-23T15:04:25;28.30;99.90
20372;DHT22;42924;37.564;-122.048;2022-07-23T15:07:06;28.50;99.90
20372;DHT22;42924;37.564;-122.048;2022-07-23T15:09:37;28.60;99.90
20372;DHT22;42924;37.564;-122.048;2022-07-23T15:12:08;28.80;99.90
20372;DHT22;42924;37.564;-122.048;2022-07-23T15:14:45;28.90;99.90
20372;DHT22;42924;37.564;-122.048;2022-07-23T15:17:19;28.90;99.90
20372;DHT22;42924;37.564;-122.048;2022-07-23T15:19:54;29.00;99.90
20372;DHT22;42924;37.564;-122.048;2022-07-23T15:22:25;29.20;99.90
20372;DHT22;42924;37.564;-122.048;2022-07-23T15:24:56;29.30;99.90
20372;DHT22;42924;37.564;-122.048;2022-07-23T15:27:28;29.40;99.90
20372;DHT22;42924;37.564;-122.048;2022-07-23T15:30:01;29.40;99.90
20372;DHT22;42924;37.564;-122.048;2022-07-23T15:32:37;29.50;99.90
20372;DHT22;42924;37.564;-122.048;2022-07-23T15:35:08;29.60;99.90
20372;DHT22;42924;37.564;-122.048;2022-07-23T15:37:42;29.70;99.90
20372;DHT22;42924;37.564;-122.048;2022-07-23T15:40:13;29.80;99.90
20372;DHT22;42924;37.564;-122.048;2022-07-23T15:42:46;29.80;99.90
20372;DHT22;42924;37.564;-122.048;2022-07-23T15:45:17;29.90;99.90
20372;DHT22;42924;37.564;-122.048;2022-07-23T15:47:51;29.90;99.90
20372;DHT22;42924;37.564;-122.048;2022-07-23T15:50:21;30.00;99.90
20372;DHT22;42924;37.564;-122.048;2022-07-23T15:52:51;30.10;99.90
20372;DHT22;42924;37.564;-122.048;2022-07-23T15:55:24;30.10;99.90
20372;DHT22;42924;37.564;-122.048;2022-07-23T15:57:59;30.00;99.90
20372;DHT22;42924;37.564;-122.048;2022-07-23T16:00:30;30.00;99.90
20372;DHT22;42924;37.564;-122.048;2022-07-23T16:03:00;30.20;99.90
20372;DHT22;42924;37.564;-122.048;2022-07-23T16:05:35;30.30;99.90
20372;DHT22;42924;37.564;-122.048;2022-07-23T16:08:09;30.40;99.90
20372;DHT22;42924;37.564;-122.048;2022-07-23T16:10:40;30.50;99.90
20372;DHT22;42924;37.564;-122.048;2022-07-23T16:13:12;30.60;99.90
20372;DHT22;42924;37.564;-122.048;2022-07-23T16:15:44;30.40;99.90
20372;DHT22;42924;37.564;-122.048;2022-07-23T16:18:19;30.40;99.90
20372;DHT22;42924;37.564;-122.048;2022-07-23T16:20:55;30.60;99.90
20372;DHT22;42924;37.564;-122.048;2022-07-23T16:23:37;30.60;99.90
20372;DHT22;42924;37.564;-122.048;2022-07-23T16:26:06;30.70;99.90
20372;DHT22;42924;37.564;-122.048;2022-07-23T16:28:36;30.70;99.90
20372;DHT22;42924;37.564;-122.048;2022-07-23T16:31:08;30.60;99.90